M I D A S
Marine Information and Data Acquisition System
Tripno 1711 of the Zeeleeuw from 2009-06-17 08:24:53 to 2009-06-17 18:02:55
Back to CruiseResearch ActivitiesStationsMapUnderway DataData graphs

EquipmentUnitsComment
TimeDGPSUTC
LatitudeDGPSDM.mWGS84
LongitudeDGPSDM.mWGS84
HeadingGyrodeg 
SOGDGPSknotsSpeed over ground
COGDGPSdegCourse over ground
DepthEcho soundermeters200 kHz
Missing or incorrect values are displayed as -999
Navigation data collected by the RV Zeeleeuw from 2009-06-17 08:10:31 to 2009-06-17 18:11:20
Time Latitude Longitude Heading SOG COG Depth
2009-06-17 08:11:40 51°13.682 2°55.887 111.1 3.6 294 -999
2009-06-17 08:12:40 51°13.694 2°55.797 89.7 3 274 -999
2009-06-17 08:13:38 51°13.698 2°55.759 60.2 0.8 18 14.6
2009-06-17 08:14:37 51°13.705 2°55.759 20.7 0.7 219 14.8
2009-06-17 08:15:36 51°13.731 2°55.735 327.1 4.4 326 13.5
2009-06-17 08:16:36 51°13.826 2°55.642 334.2 7.8 332 11.9
2009-06-17 08:17:36 51°13.949 2°55.546 336.4 8.4 335 12.3
2009-06-17 08:18:36 51°14.076 2°55.447 336 8.6 333 11.7
2009-06-17 08:19:36 51°14.2 2°55.331 327.7 8.6 324 11.9
2009-06-17 08:20:36 51°14.307 2°55.164 313.2 9.3 311 12
2009-06-17 08:21:36 51°14.406 2°54.959 304.9 10.1 302 11.9
2009-06-17 08:22:36 51°14.502 2°54.733 302.1 10.6 305 12.2
2009-06-17 08:23:36 51°14.601 2°54.484 300.2 11.5 303 11.8
2009-06-17 08:24:36 51°14.693 2°54.22 293.5 11.4 293 11.8
2009-06-17 08:25:36 51°14.766 2°53.941 290.5 11.4 293 11.3
2009-06-17 08:26:36 51°14.834 2°53.66 289.7 11.3 290 11.4
2009-06-17 08:27:36 51°14.901 2°53.375 290.3 11.5 292 11.3
2009-06-17 08:28:36 51°14.972 2°53.091 290.5 11.5 291 11.9
2009-06-17 08:29:36 51°15.033 2°52.804 284.6 11.4 285 11.8
2009-06-17 08:30:36 51°15.072 2°52.513 274 11.1 274 12.2
2009-06-17 08:31:36 51°15.063 2°52.218 262.9 11.1 263 12
2009-06-17 08:32:36 51°15.042 2°51.926 262.3 11 263 12.4
2009-06-17 08:33:36 51°15.025 2°51.633 265.4 11.1 267 12.7
2009-06-17 08:34:36 51°15.032 2°51.338 277.3 11.2 280 13.1
2009-06-17 08:35:36 51°15.082 2°51.049 286.1 11.4 288 13.5
2009-06-17 08:36:36 51°15.139 2°50.761 286.4 11.5 286 13.6
2009-06-17 08:37:36 51°15.192 2°50.469 285.6 11.5 287 13.9
2009-06-17 08:38:36 51°15.243 2°50.177 283.9 11.4 285 14.1
2009-06-17 08:39:36 51°15.293 2°49.885 285.5 11.4 287 14.2
2009-06-17 08:40:36 51°15.35 2°49.595 285.7 11.4 287 14.3
2009-06-17 08:41:36 51°15.402 2°49.306 284.2 11.4 285 14.3
2009-06-17 08:42:36 51°15.451 2°49.015 284.6 11.3 285 13.9
2009-06-17 08:43:36 51°15.496 2°48.724 283.8 11.3 283 12
2009-06-17 08:44:36 51°15.543 2°48.432 283.8 11.4 285 11.7
2009-06-17 08:45:36 51°15.618 2°48.155 296.3 11.5 297 12.7
2009-06-17 08:46:36 51°15.705 2°47.883 296.3 11.4 296 14.3
2009-06-17 08:47:36 51°15.795 2°47.611 297.3 11.5 298 16.1
2009-06-17 08:48:36 51°15.883 2°47.34 295.7 11.5 298 17.4
2009-06-17 08:49:36 51°15.969 2°47.067 296.3 11.6 296 17.8
2009-06-17 08:50:36 51°16.057 2°46.796 295 11.4 297 15.8
2009-06-17 08:51:36 51°16.143 2°46.524 296.5 11.5 299 13.7
2009-06-17 08:52:36 51°16.23 2°46.255 295.7 11.4 298 11.6
2009-06-17 08:53:36 51°16.316 2°45.982 295.3 11.6 299 10.8
2009-06-17 08:54:36 51°16.416 2°45.716 300.6 11.8 302 11.8
2009-06-17 08:55:36 51°16.518 2°45.449 297.7 11.7 300 12.3
2009-06-17 08:56:36 51°16.617 2°45.181 298.5 11.7 302 11.5
2009-06-17 08:57:36 51°16.721 2°44.916 300.6 11.8 303 10.8
2009-06-17 08:58:36 51°16.824 2°44.647 300.3 11.9 301 14.4
2009-06-17 08:59:36 51°16.926 2°44.377 299.8 11.9 300 16.8
2009-06-17 09:00:36 51°17.023 2°44.106 298.3 11.8 299 16.5
2009-06-17 09:01:36 51°17.121 2°43.836 298.1 11.7 298 15.2
2009-06-17 09:02:36 51°17.22 2°43.565 299.8 11.8 300 16.1
2009-06-17 09:03:36 51°17.319 2°43.295 298.9 11.7 301 13.1
2009-06-17 09:04:36 51°17.418 2°43.025 299.8 11.8 301 12
2009-06-17 09:05:36 51°17.517 2°42.757 298.5 11.8 301 15.8
2009-06-17 09:06:36 51°17.617 2°42.487 296.2 11.8 297 23.9
2009-06-17 09:07:36 51°17.707 2°42.211 293.3 11.7 296 24.6
2009-06-17 09:08:36 51°17.794 2°41.934 294.8 11.7 297 24.9
2009-06-17 09:09:36 51°17.881 2°41.656 294.8 11.7 298 24.2
2009-06-17 09:10:36 51°17.967 2°41.377 294.7 11.7 295 23.4
2009-06-17 09:11:36 51°18.05 2°41.096 293.9 11.7 294 21.7
2009-06-17 09:12:36 51°18.132 2°40.816 294 11.5 294 18
2009-06-17 09:13:36 51°18.216 2°40.538 295.4 11.7 297 19.5
2009-06-17 09:14:36 51°18.307 2°40.267 295 11.5 299 15.6
2009-06-17 09:15:36 51°18.399 2°40.001 295.2 11.5 297 25.9
2009-06-17 09:16:36 51°18.493 2°39.734 294.7 11.5 301 26.3
2009-06-17 09:17:36 51°18.589 2°39.471 295.4 11.6 302 25.7
2009-06-17 09:18:36 51°18.69 2°39.207 296.6 11.6 302 26.5
2009-06-17 09:19:36 51°18.786 2°38.941 292.8 11.5 298 27.1
2009-06-17 09:20:36 51°18.877 2°38.67 295.3 11.6 299 27.6
2009-06-17 09:21:36 51°18.97 2°38.398 294.9 11.6 297 27.6
2009-06-17 09:22:36 51°19.054 2°38.117 296.2 11.8 297 24.1
2009-06-17 09:23:36 51°19.138 2°37.833 295.1 11.8 298 22.7
2009-06-17 09:24:36 51°19.223 2°37.551 295.2 11.8 296 19.7
2009-06-17 09:25:37 51°19.31 2°37.269 295.3 11.6 295 20.5
2009-06-17 09:26:36 51°19.396 2°36.996 294.8 11.6 296 21.9
2009-06-17 09:27:36 51°19.484 2°36.718 295.1 11.7 294 22.4
2009-06-17 09:28:36 51°19.556 2°36.433 288.9 11.6 289 22
2009-06-17 09:29:36 51°19.621 2°36.143 287.5 11.6 289 22
2009-06-17 09:30:36 51°19.688 2°35.854 289.9 11.6 291 21.3
2009-06-17 09:31:36 51°19.755 2°35.565 288.4 11.6 290 20
2009-06-17 09:32:36 51°19.822 2°35.278 289.5 11.7 291 17.2
2009-06-17 09:33:36 51°19.893 2°34.991 289.7 11.6 291 15.7
2009-06-17 09:34:36 51°19.965 2°34.704 290.1 11.8 292 22.2
2009-06-17 09:35:36 51°20.031 2°34.411 286.8 11.7 288 29.6
2009-06-17 09:36:36 51°20.077 2°34.159 278.9 7.6 286 31
2009-06-17 09:37:36 51°20.106 2°33.994 275.2 5.8 285 31.7
2009-06-17 09:38:36 51°20.124 2°33.851 272.8 5.3 283 33.1
2009-06-17 09:39:36 51°20.142 2°33.716 273 5 283 33.4
2009-06-17 09:40:36 51°20.158 2°33.601 272.3 3.9 282 32.3
2009-06-17 09:41:36 51°20.171 2°33.523 267.1 2.2 285 32.4
2009-06-17 09:42:36 51°20.181 2°33.504 243.9 0.7 327 32.8
2009-06-17 09:43:36 51°20.191 2°33.495 235.1 0.5 333 33.1
2009-06-17 09:44:36 51°20.199 2°33.489 230.1 0.5 335 33.3
2009-06-17 09:45:36 51°20.207 2°33.484 223.4 0.5 338 33.3
2009-06-17 09:46:36 51°20.214 2°33.48 215.8 0.4 321 33.6
2009-06-17 09:47:36 51°20.216 2°33.476 207.6 0.4 281 33.2
2009-06-17 09:48:36 51°20.217 2°33.473 204.3 0.2 355 33.5
2009-06-17 09:49:36 51°20.222 2°33.473 204 0.3 2 33.6
2009-06-17 09:50:36 51°20.214 2°33.474 181.6 1.1 172 33.5
2009-06-17 09:51:36 51°20.192 2°33.495 153.2 1.5 137 33
2009-06-17 09:52:36 51°20.181 2°33.525 141.9 1.1 107 32.9
2009-06-17 09:53:36 51°20.181 2°33.555 129.5 1 84 33.2
2009-06-17 09:54:37 51°20.187 2°33.583 122.7 1.1 67 33.8
2009-06-17 09:55:36 51°20.195 2°33.608 120.2 1.2 55 33.5
2009-06-17 09:56:36 51°20.205 2°33.631 121 1 53 33.1
2009-06-17 09:57:36 51°20.216 2°33.651 124.8 1 47 32
2009-06-17 09:58:36 51°20.227 2°33.669 128.9 0.9 40 31.3
2009-06-17 09:59:36 51°20.24 2°33.684 130.4 0.9 33 30.6
2009-06-17 10:00:36 51°20.254 2°33.698 128.3 1 28 30.6
2009-06-17 10:01:36 51°20.269 2°33.71 121.8 0.9 23 30.7
2009-06-17 10:02:36 51°20.285 2°33.722 113 1 22 30.6
2009-06-17 10:03:36 51°20.301 2°33.733 104.5 1.1 22 30.5
2009-06-17 10:04:36 51°20.317 2°33.743 96.9 1.2 18 30.6
2009-06-17 10:05:36 51°20.333 2°33.752 90 1.1 19 30.9
2009-06-17 10:06:36 51°20.349 2°33.761 85 0.9 20 30.9
2009-06-17 10:07:36 51°20.364 2°33.77 80.7 1 22 31.2
2009-06-17 10:08:36 51°20.38 2°33.778 77 0.8 28 31.3
2009-06-17 10:09:36 51°20.395 2°33.785 74 0.9 18 30.9
2009-06-17 10:10:36 51°20.41 2°33.792 72.3 0.9 13 31
2009-06-17 10:11:36 51°20.426 2°33.797 70.5 1 10 31.6
2009-06-17 10:12:36 51°20.441 2°33.802 69.4 0.9 13 31.2
2009-06-17 10:13:36 51°20.455 2°33.807 67.5 0.8 14 31.2
2009-06-17 10:14:36 51°20.47 2°33.811 67.2 0.8 16 31.3
2009-06-17 10:15:36 51°20.484 2°33.813 67.6 0.9 3 30.9
2009-06-17 10:16:36 51°20.498 2°33.814 68.3 1 358 31.1
2009-06-17 10:17:36 51°20.512 2°33.815 68.9 0.7 1 31.2
2009-06-17 10:18:36 51°20.526 2°33.813 67.4 0.8 355 30.9
2009-06-17 10:19:36 51°20.54 2°33.811 65.1 0.9 356 31
2009-06-17 10:20:36 51°20.555 2°33.814 59.6 1.1 10 31
2009-06-17 10:21:36 51°20.576 2°33.836 68.1 2.6 56 30.5
2009-06-17 10:22:37 51°20.559 2°33.914 150.8 4.4 147 31.3
2009-06-17 10:23:36 51°20.455 2°33.915 191.7 8.1 191 30.9
2009-06-17 10:24:36 51°20.316 2°33.83 207.6 10.1 213 30.3
2009-06-17 10:25:36 51°20.167 2°33.706 200 9.6 203 33
2009-06-17 10:26:37 51°20.068 2°33.661 186.5 3.8 184 31
2009-06-17 10:27:36 51°20.024 2°33.663 177.1 1.9 172 31.1
2009-06-17 10:28:37 51°20 2°33.673 170.4 1.1 160 31
2009-06-17 10:29:36 51°19.989 2°33.682 172.8 0.6 144 30.9
2009-06-17 10:30:36 51°19.983 2°33.685 181.6 0.2 177 31.1
2009-06-17 10:31:36 51°19.98 2°33.684 196.8 0.1 285 31
2009-06-17 10:32:36 51°19.985 2°33.678 205.2 0.5 332 31.1
2009-06-17 10:33:36 51°19.993 2°33.671 212.1 0.7 333 31
2009-06-17 10:34:36 51°20.005 2°33.664 218 0.8 337 30.8
2009-06-17 10:35:37 51°20.018 2°33.658 222.4 0.8 346 31.1
2009-06-17 10:36:36 51°20.032 2°33.651 228 0.9 347 31.1
2009-06-17 10:37:37 51°20.048 2°33.646 234.2 1 350 31.1
2009-06-17 10:38:36 51°20.063 2°33.643 241.5 0.8 358 31.1
2009-06-17 10:39:37 51°20.079 2°33.641 247.4 1.1 354 30.4
2009-06-17 10:40:36 51°20.095 2°33.64 253.1 1 358 30.3
2009-06-17 10:41:37 51°20.11 2°33.639 260.1 0.9 337 30.2
2009-06-17 10:42:36 51°20.107 2°33.594 234.4 3.2 245 30
2009-06-17 10:43:36 51°20.068 2°33.537 194.8 3.5 187 30.4
2009-06-17 10:44:36 51°19.996 2°33.621 140.3 8.5 138 31.1
2009-06-17 10:45:36 51°19.899 2°33.812 124.5 9.6 122 29.9
2009-06-17 10:46:36 51°19.806 2°34.019 129.8 8.8 126 29.6
2009-06-17 10:47:36 51°19.844 2°34.14 18 5.4 4 29.3
2009-06-17 10:48:36 51°19.905 2°34.104 330.6 3 331 30.3
2009-06-17 10:49:36 51°19.94 2°34.062 319.6 2.3 321 30.2
2009-06-17 10:50:36 51°19.964 2°34.028 308.6 1.5 319 29.5
2009-06-17 10:51:36 51°19.978 2°34.009 294.5 0.9 327 29.8
2009-06-17 10:52:36 51°19.99 2°33.995 289.1 0.9 333 29.5
2009-06-17 10:53:37 51°20.003 2°33.981 283.7 0.8 327 29.6
2009-06-17 10:54:37 51°20.014 2°33.974 280.6 0.9 349 30.1
2009-06-17 10:55:37 51°20.026 2°33.971 283.6 0.8 353 30
2009-06-17 10:56:36 51°20.036 2°33.97 292.6 0.8 3 30
2009-06-17 10:57:37 51°20.046 2°33.97 302.3 0.5 356 30.5
2009-06-17 10:58:36 51°20.054 2°33.971 309 0.5 3 30.2
2009-06-17 10:59:37 51°20.061 2°33.972 315.9 0.4 4 30.2
2009-06-17 11:00:37 51°20.068 2°33.973 321.9 0.5 17 29.8
2009-06-17 11:01:37 51°20.073 2°33.974 326.1 0.3 5 29.8
2009-06-17 11:02:36 51°20.079 2°33.975 329.6 0.3 350 30
2009-06-17 11:03:37 51°20.084 2°33.974 331.8 0.3 357 30.5
2009-06-17 11:04:36 51°20.09 2°33.972 331.5 0.4 337 30.8
2009-06-17 11:05:36 51°20.096 2°33.969 333.4 0.5 348 31
2009-06-17 11:06:36 51°20.103 2°33.965 335.1 0.5 322 31.1
2009-06-17 11:07:37 51°20.111 2°33.96 335 0.5 340 31.1
2009-06-17 11:08:36 51°20.119 2°33.954 333.6 0.6 340 31.2
2009-06-17 11:09:36 51°20.128 2°33.948 332.1 0.6 326 31.8
2009-06-17 11:10:36 51°20.137 2°33.941 330.9 0.6 335 31.8
2009-06-17 11:11:37 51°20.146 2°33.935 329.5 0.6 350 32
2009-06-17 11:12:36 51°20.155 2°33.927 328.2 0.6 322 31.9
2009-06-17 11:13:37 51°20.164 2°33.921 327.3 0.6 333 31.9
2009-06-17 11:14:37 51°20.172 2°33.913 325.5 0.6 337 32.1
2009-06-17 11:15:36 51°20.181 2°33.906 323.4 0.6 326 32.1
2009-06-17 11:16:37 51°20.19 2°33.897 321.5 0.6 338 31.7
2009-06-17 11:17:36 51°20.199 2°33.889 320.4 0.6 322 31.3
2009-06-17 11:18:36 51°20.207 2°33.88 319.6 0.6 329 30.6
2009-06-17 11:19:37 51°20.216 2°33.871 318.9 0.6 329 30.2
2009-06-17 11:20:37 51°20.228 2°33.856 308.3 1.3 310 30.2
2009-06-17 11:21:36 51°20.241 2°33.815 270.1 2.2 282 29.9
2009-06-17 11:22:36 51°20.236 2°33.759 227.5 1.9 246 30.1
2009-06-17 11:23:36 51°20.22 2°33.724 192.7 1.4 219 30.2
2009-06-17 11:24:37 51°20.206 2°33.708 170.5 0.7 215 31
2009-06-17 11:25:37 51°20.199 2°33.699 164.8 0.5 234 31.5
2009-06-17 11:26:36 51°20.197 2°33.69 161.7 0.3 268 31.8
2009-06-17 11:27:37 51°20.199 2°33.683 159.4 0.3 320 31.5
2009-06-17 11:28:37 51°20.203 2°33.674 156.8 0.6 300 31.7
2009-06-17 11:29:36 51°20.21 2°33.665 151.2 0.6 337 31.4
2009-06-17 11:30:37 51°20.219 2°33.656 142.1 0.7 338 30.9
2009-06-17 11:31:36 51°20.229 2°33.647 131.7 0.7 331 30.6
2009-06-17 11:32:36 51°20.238 2°33.636 122.7 0.7 327 29.9
2009-06-17 11:33:36 51°20.248 2°33.625 115.8 0.7 317 29.6
2009-06-17 11:34:36 51°20.258 2°33.612 110.4 0.8 315 29.2
2009-06-17 11:35:37 51°20.269 2°33.598 105.3 0.9 327 29.3
2009-06-17 11:36:37 51°20.278 2°33.608 93.8 1.4 76 29.3
2009-06-17 11:37:36 51°20.277 2°33.665 103.1 2 94 30.2
2009-06-17 11:38:36 51°20.273 2°33.704 110.6 1.1 117 29.8
2009-06-17 11:39:36 51°20.269 2°33.724 116.1 0.6 95 29.7
2009-06-17 11:40:37 51°20.266 2°33.733 120 0.2 111 29.8
2009-06-17 11:41:37 51°20.266 2°33.733 124 0.1 4 29.8
2009-06-17 11:42:36 51°20.262 2°33.738 127.2 0.6 153 30
2009-06-17 11:43:37 51°20.251 2°33.752 130.5 1 144 29.9
2009-06-17 11:44:37 51°20.237 2°33.77 133.1 1.2 137 29.7
2009-06-17 11:45:37 51°20.219 2°33.789 135.1 1.4 148 29.9
2009-06-17 11:46:37 51°20.198 2°33.809 137.2 1.5 156 31.4
2009-06-17 11:47:37 51°20.175 2°33.829 140.2 1.6 153 32.2
2009-06-17 11:48:36 51°20.151 2°33.845 143.3 1.7 162 32.1
2009-06-17 11:49:37 51°20.118 2°33.855 165.9 2.4 188 31.9
2009-06-17 11:50:36 51°20.082 2°33.82 219 2.9 231 29.8
2009-06-17 11:51:37 51°20.052 2°33.669 261.7 8.4 261 30.6
2009-06-17 11:52:37 51°20.061 2°33.401 280 11.2 280 30
2009-06-17 11:53:37 51°20.134 2°33.118 302.5 11.7 301 30.3
2009-06-17 11:54:36 51°20.26 2°32.89 319.9 11.7 317 29.9
2009-06-17 11:55:37 51°20.396 2°32.663 315.1 11.5 312 29.4
2009-06-17 11:56:37 51°20.52 2°32.431 314 11.5 310 29.4
2009-06-17 11:57:36 51°20.639 2°32.199 311.6 11.5 308 29.5
2009-06-17 11:58:37 51°20.744 2°31.972 310.1 7.8 304 24.1
2009-06-17 11:59:37 51°20.771 2°31.843 277.3 3.8 275 19.3
2009-06-17 12:00:37 51°20.774 2°31.764 281 2.4 276 16.5
2009-06-17 12:01:36 51°20.778 2°31.717 299.4 1.5 282 17.1
2009-06-17 12:02:37 51°20.784 2°31.683 304.2 1.2 295 16.9
2009-06-17 12:03:37 51°20.789 2°31.653 295.1 1 287 15.4
2009-06-17 12:04:36 51°20.792 2°31.629 285.3 0.9 284 13.8
2009-06-17 12:05:36 51°20.796 2°31.606 282.3 0.9 288 14.8
2009-06-17 12:06:37 51°20.8 2°31.587 288.1 0.7 295 15.1
2009-06-17 12:07:37 51°20.803 2°31.572 296.7 0.6 290 14.3
2009-06-17 12:08:36 51°20.805 2°31.556 303.5 0.6 293 12.8
2009-06-17 12:09:37 51°20.807 2°31.54 312.3 0.7 269 14.4
2009-06-17 12:10:36 51°20.808 2°31.525 319.8 0.6 277 13.6
2009-06-17 12:11:37 51°20.808 2°31.51 322.8 0.5 271 13.7
2009-06-17 12:12:37 51°20.808 2°31.494 327 0.7 263 13.4
2009-06-17 12:13:37 51°20.808 2°31.476 328.5 0.9 264 12.1
2009-06-17 12:14:37 51°20.808 2°31.456 331 0.8 273 13.2
2009-06-17 12:15:36 51°20.808 2°31.436 334.9 0.8 268 11.9
2009-06-17 12:16:37 51°20.807 2°31.413 335.3 1 265 10.9
2009-06-17 12:17:37 51°20.807 2°31.388 332.9 1 272 9.3
2009-06-17 12:18:37 51°20.808 2°31.364 332.1 0.9 271 12
2009-06-17 12:19:36 51°20.809 2°31.343 332.6 0.9 270 11.1
2009-06-17 12:20:37 51°20.809 2°31.319 332.6 0.7 275 11.4
2009-06-17 12:21:36 51°20.811 2°31.298 333.3 0.8 281 12.1
2009-06-17 12:22:37 51°20.812 2°31.277 334 0.8 276 12.2
2009-06-17 12:23:37 51°20.813 2°31.255 335.1 0.9 273 11.2
2009-06-17 12:24:36 51°20.814 2°31.23 337 0.9 274 11.5
2009-06-17 12:25:37 51°20.815 2°31.206 338.3 0.8 279 10.6
2009-06-17 12:26:37 51°20.817 2°31.181 337.6 0.9 280 11.1
2009-06-17 12:27:37 51°20.818 2°31.153 335.8 1.2 271 9.7
2009-06-17 12:28:37 51°20.82 2°31.125 336.6 0.9 282 10.8
2009-06-17 12:29:37 51°20.822 2°31.101 337 1 275 10.9
2009-06-17 12:30:37 51°20.824 2°31.073 333.7 1.1 274 9.8
2009-06-17 12:31:37 51°20.826 2°31.048 334.4 1 274 11.3
2009-06-17 12:32:37 51°20.828 2°31.024 333.1 1 276 11
2009-06-17 12:33:37 51°20.829 2°30.999 332 1 277 10
2009-06-17 12:34:37 51°20.831 2°30.97 328.5 1.3 271 8.7
2009-06-17 12:35:36 51°20.832 2°30.939 327.6 1 279 10.9
2009-06-17 12:36:37 51°20.834 2°30.913 328.7 1 272 10.4
2009-06-17 12:37:36 51°20.836 2°30.885 323.1 0.9 285 10.8
2009-06-17 12:38:37 51°20.839 2°30.859 324.5 1 276 11
2009-06-17 12:39:37 51°20.841 2°30.832 318.4 1 282 12.8
2009-06-17 12:40:37 51°20.844 2°30.809 320.4 0.8 274 13.8
2009-06-17 12:41:37 51°20.845 2°30.788 323.8 0.8 278 14.6
2009-06-17 12:42:37 51°20.847 2°30.767 329.6 0.9 271 17
2009-06-17 12:43:37 51°20.847 2°30.748 331.8 0.8 269 18.7
2009-06-17 12:44:37 51°20.848 2°30.728 333.5 0.7 271 17.3
2009-06-17 12:45:37 51°20.848 2°30.708 336.2 0.7 278 18.4
2009-06-17 12:46:37 51°20.849 2°30.688 339.3 0.8 270 19.8
2009-06-17 12:47:37 51°20.849 2°30.668 344.6 0.6 270 21
2009-06-17 12:48:37 51°20.849 2°30.648 352.1 0.7 266 20.5
2009-06-17 12:49:37 51°20.847 2°30.627 357.4 0.8 265 20.9
2009-06-17 12:50:37 51°20.846 2°30.605 359.7 0.8 265 22.1
2009-06-17 12:51:37 51°20.844 2°30.584 0.7 0.8 264 22.8
2009-06-17 12:52:37 51°20.843 2°30.562 0.7 0.8 265 23.9
2009-06-17 12:53:37 51°20.841 2°30.542 359.3 0.8 266 24.6
2009-06-17 12:54:37 51°20.841 2°30.522 356.9 0.8 266 25
2009-06-17 12:55:36 51°20.838 2°30.502 354.1 0.7 260 25.2
2009-06-17 12:56:37 51°20.836 2°30.484 351.3 0.7 253 25.6
2009-06-17 12:57:36 51°20.832 2°30.468 350.4 0.6 245 26.5
2009-06-17 12:58:37 51°20.827 2°30.451 352.6 0.7 245 26.4
2009-06-17 12:59:37 51°20.822 2°30.434 357.5 0.7 246 26.6
2009-06-17 13:00:37 51°20.817 2°30.415 0.3 0.7 246 26.4
2009-06-17 13:01:37 51°20.813 2°30.396 0.8 0.7 250 26.7
2009-06-17 13:02:36 51°20.809 2°30.377 359.3 0.8 250 27.4
2009-06-17 13:03:37 51°20.805 2°30.357 355.5 0.8 252 27.3
2009-06-17 13:04:36 51°20.801 2°30.339 349.9 0.6 250 27.5
2009-06-17 13:05:37 51°20.796 2°30.321 346.6 0.7 248 27.9
2009-06-17 13:06:36 51°20.792 2°30.304 344.8 0.7 248 27.9
2009-06-17 13:07:37 51°20.786 2°30.288 344.2 0.7 245 27.8
2009-06-17 13:08:37 51°20.781 2°30.272 345.3 0.7 241 27.8
2009-06-17 13:09:37 51°20.775 2°30.257 346.5 0.7 238 28
2009-06-17 13:10:37 51°20.769 2°30.242 347.7 0.6 234 28
2009-06-17 13:11:36 51°20.763 2°30.226 349.3 0.8 240 28.2
2009-06-17 13:12:37 51°20.757 2°30.209 350.5 0.7 240 28.1
2009-06-17 13:13:37 51°20.751 2°30.193 351.6 0.7 241 28.3
2009-06-17 13:14:37 51°20.745 2°30.175 353.5 0.8 244 28.2
2009-06-17 13:15:37 51°20.74 2°30.157 355.8 0.8 245 28.4
2009-06-17 13:16:37 51°20.734 2°30.139 358.7 0.8 244 28.3
2009-06-17 13:17:37 51°20.729 2°30.119 0.7 0.9 250 28.3
2009-06-17 13:18:37 51°20.724 2°30.099 0.3 0.8 246 28.1
2009-06-17 13:19:37 51°20.719 2°30.079 357.7 0.9 251 28.5
2009-06-17 13:20:37 51°20.714 2°30.058 353.7 0.8 249 28.6
2009-06-17 13:21:37 51°20.709 2°30.039 348.9 0.9 246 28.3
2009-06-17 13:22:37 51°20.703 2°30.02 345.1 0.8 243 28.5
2009-06-17 13:23:37 51°20.696 2°30.002 343.3 0.7 239 28.4
2009-06-17 13:24:37 51°20.689 2°29.987 345 0.9 237 28.6
2009-06-17 13:25:37 51°20.681 2°29.971 348.6 0.8 231 28.5
2009-06-17 13:26:37 51°20.673 2°29.955 353.9 0.9 237 28.6
2009-06-17 13:27:37 51°20.665 2°29.938 359.4 0.8 234 28.6
2009-06-17 13:28:37 51°20.657 2°29.92 4.4 0.9 237 28.7
2009-06-17 13:29:36 51°20.649 2°29.901 8 0.9 237 28.6
2009-06-17 13:30:37 51°20.641 2°29.88 10.4 0.8 238 28.7
2009-06-17 13:31:36 51°20.633 2°29.86 11.7 0.8 234 28.5
2009-06-17 13:32:37 51°20.626 2°29.838 12.8 1 246 28.8
2009-06-17 13:33:37 51°20.62 2°29.816 13.3 1 246 28.6
2009-06-17 13:34:37 51°20.613 2°29.793 13.9 0.9 246 28.7
2009-06-17 13:35:37 51°20.608 2°29.77 14.2 0.9 247 28.8
2009-06-17 13:36:37 51°20.602 2°29.747 14.6 1 249 28.7
2009-06-17 13:37:37 51°20.596 2°29.724 14.4 1 252 28.6
2009-06-17 13:38:37 51°20.591 2°29.701 13.8 1 250 29.1
2009-06-17 13:39:37 51°20.586 2°29.678 11.9 0.9 251 28.6
2009-06-17 13:40:37 51°20.581 2°29.655 8.3 0.8 252 28.8
2009-06-17 13:41:37 51°20.576 2°29.633 2.8 0.8 252 28.7
2009-06-17 13:42:37 51°20.572 2°29.611 357.2 0.9 253 28.9
2009-06-17 13:43:37 51°20.567 2°29.589 350.2 0.9 250 28.8
2009-06-17 13:44:37 51°20.562 2°29.568 342.4 0.9 243 29
2009-06-17 13:45:36 51°20.556 2°29.549 331.7 0.7 237 28.7
2009-06-17 13:46:37 51°20.549 2°29.532 323.3 0.7 233 28.1
2009-06-17 13:47:37 51°20.541 2°29.517 318.4 0.8 227 28.4
2009-06-17 13:48:37 51°20.532 2°29.504 318.2 0.6 221 28.2
2009-06-17 13:49:37 51°20.523 2°29.492 323.1 0.7 222 28.8
2009-06-17 13:50:37 51°20.514 2°29.479 328.2 0.9 220 28.5
2009-06-17 13:51:37 51°20.503 2°29.466 332.7 0.8 217 28.9
2009-06-17 13:52:37 51°20.491 2°29.453 339 0.9 217 29
2009-06-17 13:53:37 51°20.478 2°29.439 344.7 1 217 29
2009-06-17 13:54:37 51°20.466 2°29.425 348.7 0.9 217 28.8
2009-06-17 13:55:37 51°20.454 2°29.409 353 0.9 221 28.6
2009-06-17 13:56:37 51°20.442 2°29.392 356.6 1 227 29
2009-06-17 13:57:37 51°20.431 2°29.374 358.7 1 228 28.7
2009-06-17 13:58:37 51°20.42 2°29.356 -999 0.9 225 29.4
2009-06-17 13:59:37 51°20.409 2°29.338 0.7 0.9 228 29.2
2009-06-17 14:00:37 51°20.399 2°29.32 359.4 0.9 230 29.4
2009-06-17 14:01:37 51°20.39 2°29.302 356.6 0.9 231 29.1
2009-06-17 14:02:37 51°20.382 2°29.286 354.6 0.9 229 28.8
2009-06-17 14:03:37 51°20.381 2°29.268 7.5 0.9 312 29.2
2009-06-17 14:04:37 51°20.398 2°29.275 56.7 1.6 61 28.9
2009-06-17 14:05:37 51°20.386 2°29.325 122.6 2.8 141 29.1
2009-06-17 14:06:37 51°20.342 2°29.396 118.8 4.9 125 29.2
2009-06-17 14:07:37 51°20.317 2°29.544 93 6.4 92 29.1
2009-06-17 14:08:37 51°20.318 2°29.721 88.7 6.8 88 29.4
2009-06-17 14:09:37 51°20.322 2°29.902 89.4 6.9 88 28.4
2009-06-17 14:10:37 51°20.325 2°30.127 89.2 9.9 89 18.4
2009-06-17 14:11:37 51°20.327 2°30.395 93.5 10.2 93 12.7
2009-06-17 14:12:37 51°20.309 2°30.661 95.8 10.1 101 12.6
2009-06-17 14:13:37 51°20.286 2°30.927 96.6 10.1 96 15.7
2009-06-17 14:14:37 51°20.278 2°31.2 89.5 10.3 91 18.6
2009-06-17 14:15:37 51°20.269 2°31.476 92.6 10.4 95 23.2
2009-06-17 14:16:37 51°20.246 2°31.752 100.6 10.6 108 29.1
2009-06-17 14:17:37 51°20.197 2°32.022 103.2 10.6 107 29.4
2009-06-17 14:18:37 51°20.147 2°32.293 102.4 10.7 106 29.6
2009-06-17 14:19:37 51°20.102 2°32.566 101.8 10.6 105 29.7
2009-06-17 14:20:37 51°20.066 2°32.841 97.7 10.7 100 30
2009-06-17 14:21:37 51°20.031 2°33.117 98.8 10.7 101 29.8
2009-06-17 14:22:37 51°20 2°33.394 95.4 10.6 98 29.9
2009-06-17 14:23:37 51°19.985 2°33.674 91.5 10.5 92 30.2
2009-06-17 14:24:37 51°19.976 2°33.953 90.1 10.5 90 29.7
2009-06-17 14:25:37 51°19.97 2°34.23 90.8 10.5 94 28.6
2009-06-17 14:26:37 51°19.969 2°34.508 87.6 10.5 90 26.3
2009-06-17 14:27:37 51°19.979 2°34.785 86.5 10.3 84 21.1
2009-06-17 14:28:37 51°19.988 2°35.062 86.6 10.4 86 14.4
2009-06-17 14:29:37 51°19.997 2°35.339 86.6 10.5 87 15.1
2009-06-17 14:30:37 51°20.007 2°35.617 86.3 10.5 88 17.2
2009-06-17 14:31:37 51°20.015 2°35.897 87.5 10.6 88 19.2
2009-06-17 14:32:37 51°20.02 2°36.178 88.6 10.6 91 20.7
2009-06-17 14:33:37 51°20.024 2°36.458 88.2 10.6 88 21.3
2009-06-17 14:34:37 51°20.045 2°36.684 72.4 5.3 70 20
2009-06-17 14:35:37 51°20.078 2°36.754 56.2 2.3 50 21.3
2009-06-17 14:36:37 51°20.084 2°36.795 85.3 1.3 91 21.9
2009-06-17 14:37:37 51°20.086 2°36.828 72.5 1.4 78 22.3
2009-06-17 14:38:37 51°20.089 2°36.87 81.4 1.7 85 21.5
2009-06-17 14:39:37 51°20.097 2°36.912 64.7 1.6 67 20.2
2009-06-17 14:40:37 51°20.101 2°36.928 66.7 0.1 248 24.4
2009-06-17 14:41:37 51°20.099 2°36.925 76.7 0.3 219 23.2
2009-06-17 14:42:37 51°20.095 2°36.916 85.4 0.6 242 19.8
2009-06-17 14:43:37 51°20.089 2°36.896 94.6 0.9 250 19.4
2009-06-17 14:44:37 51°20.084 2°36.873 102.6 1 246 21.7
2009-06-17 14:45:37 51°20.08 2°36.849 109 0.9 257 21.8
2009-06-17 14:46:37 51°20.076 2°36.83 105.2 0.5 213 21.9
2009-06-17 14:47:37 51°20.075 2°36.859 71.4 2 71 21.9
2009-06-17 14:48:37 51°20.091 2°36.913 73.9 1.8 73 21.9
2009-06-17 14:49:37 51°20.103 2°36.943 45.1 0.8 26 23.8
2009-06-17 14:50:37 51°20.109 2°36.938 44.1 0.3 293 22.2
2009-06-17 14:51:37 51°20.108 2°36.925 58.8 0.6 254 22.6
2009-06-17 14:52:37 51°20.105 2°36.908 70.3 0.7 255 21.3
2009-06-17 14:53:37 51°20.101 2°36.89 81.7 0.7 245 19.8
2009-06-17 14:54:37 51°20.095 2°36.872 93.7 0.8 247 20.7
2009-06-17 14:55:37 51°20.089 2°36.852 104.1 0.8 244 22.1
2009-06-17 14:56:37 51°20.083 2°36.835 109.5 0.6 237 22
2009-06-17 14:57:37 51°20.081 2°36.859 71.1 2.2 73 22.1
2009-06-17 14:58:37 51°20.097 2°36.921 65.7 2.1 67 21.3
2009-06-17 14:59:37 51°20.101 2°36.945 84.1 0.4 223 23.3
2009-06-17 15:00:37 51°20.096 2°36.924 90.1 0.9 251 21.7
2009-06-17 15:01:37 51°20.091 2°36.903 86.5 0.8 257 20.5
2009-06-17 15:02:37 51°20.086 2°36.883 91.5 0.8 247 21.4
2009-06-17 15:03:37 51°20.082 2°36.865 100.8 0.8 252 21.8
2009-06-17 15:04:37 51°20.078 2°36.849 107.5 0.5 224 22.1
2009-06-17 15:05:36 51°20.064 2°36.857 127.3 2.1 156 22.4
2009-06-17 15:06:37 51°20 2°36.833 215.4 5.3 223 21.1
2009-06-17 15:07:37 51°19.96 2°36.646 259.9 9.8 258 21
2009-06-17 15:08:37 51°19.934 2°36.346 267.4 12.5 266 20.9
2009-06-17 15:09:37 51°19.913 2°36.006 268.2 12.9 265 20.5
2009-06-17 15:10:37 51°19.896 2°35.662 268.9 13 265 17.9
2009-06-17 15:11:37 51°19.877 2°35.318 268.8 13 265 15.7
2009-06-17 15:12:36 51°19.862 2°34.981 270.1 12.9 267 13.6
2009-06-17 15:13:37 51°19.855 2°34.63 270.8 13 269 20.4
2009-06-17 15:14:36 51°19.845 2°34.289 270.9 13.1 267 28.6
2009-06-17 15:15:37 51°19.836 2°33.936 270.7 13.1 267 29.7
2009-06-17 15:16:37 51°19.83 2°33.59 271.5 13 268 30
2009-06-17 15:17:37 51°19.82 2°33.258 268.3 11.3 265 30.4
2009-06-17 15:18:37 51°19.798 2°33.03 260.3 6.6 256 31.1
2009-06-17 15:19:37 51°19.773 2°32.917 231.6 3.2 240 30.7
2009-06-17 15:20:37 51°19.745 2°32.859 218.7 2.8 233 30.6
2009-06-17 15:21:37 51°19.722 2°32.801 239.1 2.4 245 30.5
2009-06-17 15:22:37 51°19.708 2°32.745 255.2 2.1 254 30.4
2009-06-17 15:23:37 51°19.702 2°32.692 277 2 264 30.5
2009-06-17 15:24:37 51°19.702 2°32.645 288.4 1.6 271 30.2
2009-06-17 15:25:37 51°19.702 2°32.606 289.2 1.4 269 30.3
2009-06-17 15:26:37 51°19.703 2°32.571 289.9 1.3 268 30.6
2009-06-17 15:27:37 51°19.703 2°32.541 293.2 1.1 269 30.8
2009-06-17 15:28:37 51°19.704 2°32.516 299.3 0.9 270 30.6
2009-06-17 15:29:37 51°19.704 2°32.495 307.8 0.8 262 30.5
2009-06-17 15:30:36 51°19.701 2°32.476 317.3 0.7 255 30.6
2009-06-17 15:31:37 51°19.698 2°32.458 325.2 0.6 254 30.7
2009-06-17 15:32:36 51°19.695 2°32.442 333.2 0.6 255 30.7
2009-06-17 15:33:37 51°19.692 2°32.425 340.7 0.6 249 30.5
2009-06-17 15:34:37 51°19.687 2°32.409 348.3 0.7 244 30.5
2009-06-17 15:35:37 51°19.682 2°32.393 353.5 0.8 249 30.7
2009-06-17 15:36:37 51°19.678 2°32.376 357.8 0.7 296 30.7
2009-06-17 15:37:37 51°19.704 2°32.389 56.4 2.6 49 30.4
2009-06-17 15:38:37 51°19.714 2°32.487 84.8 4.8 85 30.6
2009-06-17 15:39:37 51°19.72 2°32.598 82.2 3.1 84 30.7
2009-06-17 15:40:37 51°19.727 2°32.645 73.7 1.3 70 30.6
2009-06-17 15:41:37 51°19.736 2°32.666 60.5 0.8 42 30.7
2009-06-17 15:42:37 51°19.746 2°32.675 51.8 0.6 18 31
2009-06-17 15:43:37 51°19.755 2°32.675 45.1 0.5 355 31.1
2009-06-17 15:44:37 51°19.764 2°32.669 39.1 0.5 332 31.2
2009-06-17 15:45:37 51°19.77 2°32.662 33.8 0.5 326 31
2009-06-17 15:46:37 51°19.776 2°32.653 26.8 0.5 317 30.9
2009-06-17 15:47:37 51°19.782 2°32.641 16.3 0.6 308 30.7
2009-06-17 15:48:37 51°19.788 2°32.628 7.5 0.6 300 31
2009-06-17 15:49:37 51°19.792 2°32.613 358.2 0.6 293 31.1
2009-06-17 15:50:37 51°19.795 2°32.598 349.2 0.5 285 31.1
2009-06-17 15:51:37 51°19.797 2°32.582 340.7 0.6 280 31.1
2009-06-17 15:52:37 51°19.798 2°32.568 334.6 0.5 279 30.9
2009-06-17 15:53:37 51°19.799 2°32.555 331.2 0.4 285 31
2009-06-17 15:54:37 51°19.8 2°32.543 331.1 0.4 273 31.1
2009-06-17 15:55:37 51°19.8 2°32.534 334 0.4 271 31.2
2009-06-17 15:56:37 51°19.8 2°32.526 339.9 0.3 264 30.9
2009-06-17 15:57:37 51°19.799 2°32.518 346.4 0.3 259 30.9
2009-06-17 15:58:37 51°19.797 2°32.51 351.4 0.3 252 30.9
2009-06-17 15:59:37 51°19.796 2°32.504 356.4 0.3 253 30.9
2009-06-17 16:00:37 51°19.794 2°32.496 359.7 0.3 241 31
2009-06-17 16:01:37 51°19.792 2°32.49 0.9 0.3 247 30.9
2009-06-17 16:02:37 51°19.791 2°32.484 1.5 0.2 247 31
2009-06-17 16:03:37 51°19.788 2°32.479 1.6 0.2 239 30.8
2009-06-17 16:04:37 51°19.787 2°32.474 1.5 0.2 259 31
2009-06-17 16:05:37 51°19.785 2°32.47 359.6 0.2 245 31.1
2009-06-17 16:06:37 51°19.784 2°32.466 358.8 0.1 210 31.2
2009-06-17 16:07:37 51°19.782 2°32.463 357.6 0.2 245 31
2009-06-17 16:08:37 51°19.781 2°32.459 355.9 0.1 226 31
2009-06-17 16:09:37 51°19.78 2°32.456 353.8 0.2 236 31.1
2009-06-17 16:10:37 51°19.778 2°32.453 353.1 0.2 245 31.1
2009-06-17 16:11:37 51°19.776 2°32.451 352.9 0.2 229 31
2009-06-17 16:12:37 51°19.775 2°32.448 354.2 0.1 222 31.2
2009-06-17 16:13:37 51°19.773 2°32.446 355 0.2 201 31
2009-06-17 16:14:37 51°19.771 2°32.444 355.5 0.1 194 31.1
2009-06-17 16:15:37 51°19.77 2°32.443 357.7 0.1 216 31.1
2009-06-17 16:16:37 51°19.768 2°32.441 358.7 0.1 233 30.9
2009-06-17 16:17:37 51°19.767 2°32.44 358 0.1 232 31.1
2009-06-17 16:18:37 51°19.767 2°32.439 355.7 0.1 258 31
2009-06-17 16:19:37 51°19.766 2°32.438 353.4 0.1 242 31.1
2009-06-17 16:20:37 51°19.766 2°32.439 352 -999 229 31.3
2009-06-17 16:21:37 51°19.766 2°32.439 351 0.1 54 31
2009-06-17 16:22:37 51°19.766 2°32.439 350.7 0.1 88 31.4
2009-06-17 16:23:37 51°19.766 2°32.44 350.7 0.1 68 31.2
2009-06-17 16:24:37 51°19.767 2°32.441 349.5 0.2 69 31.2
2009-06-17 16:25:36 51°19.769 2°32.444 349.8 0.1 63 31.2
2009-06-17 16:26:36 51°19.77 2°32.445 349.8 0.1 51 31.3
2009-06-17 16:27:37 51°19.771 2°32.448 350.8 0.2 64 31.2
2009-06-17 16:28:36 51°19.772 2°32.45 351.7 0.1 67 31.4
2009-06-17 16:29:37 51°19.773 2°32.453 352.1 0.2 58 31.5
2009-06-17 16:30:37 51°19.774 2°32.456 352 0.1 27 31.5
2009-06-17 16:31:37 51°19.776 2°32.46 353.4 0.2 67 31.5
2009-06-17 16:32:37 51°19.778 2°32.464 355.4 0.2 59 31.4
2009-06-17 16:33:37 51°19.779 2°32.468 356.2 0.1 43 31.5
2009-06-17 16:34:37 51°19.781 2°32.472 356.3 0.2 62 31.5
2009-06-17 16:35:37 51°19.783 2°32.477 356.7 0.3 71 31.6
2009-06-17 16:36:37 51°19.785 2°32.483 357.2 0.3 51 31.5
2009-06-17 16:37:37 51°19.787 2°32.489 357.4 0.3 63 31.5
2009-06-17 16:38:37 51°19.789 2°32.496 359.4 0.3 60 31.6
2009-06-17 16:39:36 51°19.792 2°32.503 0.2 0.4 65 31.4
2009-06-17 16:40:37 51°19.812 2°32.511 12.8 2.6 13 31.4
2009-06-17 16:41:37 51°19.86 2°32.574 66.2 4.5 65 31.7
2009-06-17 16:42:37 51°19.847 2°32.711 113.5 7.1 112 31.8
2009-06-17 16:43:37 51°19.792 2°32.933 111.9 9.9 112 31.9
2009-06-17 16:44:37 51°19.707 2°33.164 126.6 10.9 125 31.5
2009-06-17 16:45:37 51°19.584 2°33.398 130.1 11.6 130 30.4
2009-06-17 16:46:37 51°19.457 2°33.632 131.2 11.6 131 29.6
2009-06-17 16:47:37 51°19.33 2°33.869 130.1 11.6 133 26.7
2009-06-17 16:48:36 51°19.21 2°34.102 130.9 11.5 128 15.7
2009-06-17 16:49:37 51°19.084 2°34.342 130.6 11.7 129 16.9
2009-06-17 16:50:36 51°18.96 2°34.57 132.3 11.6 133 20.6
2009-06-17 16:51:37 51°18.835 2°34.809 129.2 11.5 131 21.8
2009-06-17 16:52:37 51°18.713 2°35.047 130.2 11.5 130 22.7
2009-06-17 16:53:37 51°18.591 2°35.282 131.6 11.5 129 24.1
2009-06-17 16:54:37 51°18.469 2°35.517 130 11.6 128 26.2
2009-06-17 16:55:37 51°18.345 2°35.755 131.3 11.7 131 25.3
2009-06-17 16:56:37 51°18.219 2°35.993 130 11.8 129 20.1
2009-06-17 16:57:37 51°18.105 2°36.244 118.8 11.7 114 15.3
2009-06-17 16:58:37 51°18.056 2°36.542 95.6 11.7 95 17.7
2009-06-17 16:59:37 51°18.05 2°36.854 92.9 11.7 94 20.9
2009-06-17 17:00:37 51°18.035 2°37.165 96.1 11.8 97 22.3
2009-06-17 17:01:37 51°18.022 2°37.478 95.5 11.9 95 25.9
2009-06-17 17:02:37 51°18.009 2°37.794 94.4 11.9 94 26.7
2009-06-17 17:03:37 51°17.998 2°38.112 95.2 12 95 28
2009-06-17 17:04:37 51°17.989 2°38.432 95.4 12.1 93 27.8
2009-06-17 17:05:37 51°17.967 2°38.751 100.9 12 96 27.6
2009-06-17 17:06:37 51°17.942 2°39.066 100.5 12 98 28.4
2009-06-17 17:07:37 51°17.91 2°39.38 104.6 11.9 102 27.4
2009-06-17 17:08:37 51°17.861 2°39.69 106.2 12.2 104 16.1
2009-06-17 17:09:37 51°17.811 2°40.005 106.1 12.2 105 18.6
2009-06-17 17:10:37 51°17.759 2°40.318 105.8 12.2 107 16.9
2009-06-17 17:11:37 51°17.704 2°40.63 107.2 12.2 107 16.8
2009-06-17 17:12:37 51°17.655 2°40.941 105.9 12 103 22.8
2009-06-17 17:13:37 51°17.608 2°41.252 106.2 12.1 104 24.3
2009-06-17 17:14:37 51°17.563 2°41.564 104.6 12.1 101 24.8
2009-06-17 17:15:37 51°17.521 2°41.879 105.9 12.1 103 25.2
2009-06-17 17:16:37 51°17.479 2°42.193 104.4 12.1 101 24.9
2009-06-17 17:17:37 51°17.419 2°42.498 114.9 12.1 110 22.1
2009-06-17 17:18:37 51°17.339 2°42.794 116 12.2 113 12.6
2009-06-17 17:19:37 51°17.256 2°43.09 114.8 12.3 114 14.2
2009-06-17 17:20:37 51°17.175 2°43.383 115.9 12 111 15.4
2009-06-17 17:21:37 51°17.094 2°43.67 116.2 11.8 114 16.2
2009-06-17 17:22:37 51°17.015 2°43.96 115.1 12 112 16.5
2009-06-17 17:23:37 51°16.933 2°44.249 116.9 12 117 17.2
2009-06-17 17:24:37 51°16.839 2°44.529 121.6 12 117 15.9
2009-06-17 17:25:37 51°16.743 2°44.807 119.8 12 116 13.7
2009-06-17 17:26:37 51°16.648 2°45.086 120.1 12 116 12
2009-06-17 17:27:37 51°16.556 2°45.366 121.2 11.9 118 13.2
2009-06-17 17:28:37 51°16.467 2°45.647 119.1 11.9 119 12.5
2009-06-17 17:29:37 51°16.378 2°45.931 118.2 11.9 116 11.6
2009-06-17 17:30:37 51°16.305 2°46.228 113.8 12 111 11
2009-06-17 17:31:37 51°16.239 2°46.533 110.4 12.2 107 12.2
2009-06-17 17:32:37 51°16.176 2°46.843 110.1 12.3 105 14.5
2009-06-17 17:33:37 51°16.113 2°47.153 111.1 12.3 108 16.6
2009-06-17 17:34:37 51°16.048 2°47.463 112.9 12.4 109 17.7
2009-06-17 17:35:37 51°15.986 2°47.777 111.8 12.5 108 17.3
2009-06-17 17:36:37 51°15.925 2°48.09 111.5 12.4 108 16.4
2009-06-17 17:37:37 51°15.864 2°48.402 109.6 12.3 105 14.8
2009-06-17 17:38:37 51°15.811 2°48.716 106.6 12.2 105 13.2
2009-06-17 17:39:37 51°15.764 2°49.033 106.1 12.3 103 12.3
2009-06-17 17:40:37 51°15.714 2°49.351 108 12.4 105 12.6
2009-06-17 17:41:37 51°15.662 2°49.668 108.1 12.3 102 14.3
2009-06-17 17:42:37 51°15.613 2°49.988 108.1 12.4 104 14.8
2009-06-17 17:43:37 51°15.569 2°50.31 107.1 12.5 103 14.6
2009-06-17 17:44:37 51°15.523 2°50.632 106.8 12.3 106 14.7
2009-06-17 17:45:37 51°15.474 2°50.952 109 12.2 107 14.4
2009-06-17 17:46:37 51°15.413 2°51.264 114.1 12.3 109 14.3
2009-06-17 17:47:37 51°15.343 2°51.571 116.2 12.3 111 13.9
2009-06-17 17:48:37 51°15.275 2°51.879 114 12.3 107 13.5
2009-06-17 17:49:37 51°15.199 2°52.18 117.6 12.1 115 12.9
2009-06-17 17:50:37 51°15.122 2°52.48 116.8 12.3 109 12.5
2009-06-17 17:51:37 51°15.048 2°52.784 116.1 12.4 111 12.3
2009-06-17 17:52:37 51°14.975 2°53.091 115.3 12.4 114 12.2
2009-06-17 17:53:37 51°14.902 2°53.402 116.1 12.4 113 11.8
2009-06-17 17:54:37 51°14.823 2°53.707 118.3 12.5 113 11.7
2009-06-17 17:55:37 51°14.74 2°54.01 120 12.4 115 12.1
2009-06-17 17:56:37 51°14.654 2°54.308 122 12.5 113 12.3
2009-06-17 17:57:37 51°14.563 2°54.601 124.1 12.2 121 12.1
2009-06-17 17:58:37 51°14.457 2°54.876 131.1 12.3 123 12.4
2009-06-17 17:59:37 51°14.337 2°55.129 135.4 11.7 133 12.3
2009-06-17 18:00:37 51°14.218 2°55.313 138.8 9.2 138 12.4
2009-06-17 18:01:37 51°14.092 2°55.431 155.1 8.4 156 12.2
2009-06-17 18:02:41 51°13.955 2°55.532 155.5 8.7 155 12.3
2009-06-17 18:03:40 51°13.838 2°55.621 150.8 7.1 153 -999
2009-06-17 18:04:41 51°13.753 2°55.722 134.1 5.7 135 -999
2009-06-17 18:05:41 51°13.7 2°55.822 124.7 4.3 125 -999
2009-06-17 18:06:40 51°13.673 2°55.904 108.1 2.9 109 -999
2009-06-17 18:07:41 51°13.665 2°55.951 117.4 0.9 110 -999
2009-06-17 18:08:40 51°13.662 2°55.959 125.5 0.1 237 -999
2009-06-17 18:09:40 51°13.662 2°55.959 131.2 0.1 261 -999
2009-06-17 18:10:40 51°13.662 2°55.959 130.2 -999 221 -999